Time;durP1;ratioP1;P1;durP2;ratioP2;P2;SDS_P1;SDS_P2;PMS_P1;PMS_P2;Temp;Humidity;BMP_temperature;BMP_pressure;BME280_temperature;BME280_humidity;BME280_pressure;Samples;Min_cycle;Max_cycle;Signal;HPM_P1;HPM_P2
2023/11/25 00:02:17;;;;;;;2.40;1.57;;;0.70;99.90;;;;;;5050692;28;20194;-60
2023/11/25 00:04:43;;;;;;;4.43;1.70;;;0.70;99.90;;;;;;5050374;28;20183;-61
2023/11/25 00:07:08;;;;;;;1.87;1.73;;;0.80;99.90;;;;;;5051032;28;20178;-62
2023/11/25 00:09:34;;;;;;;2.67;1.93;;;0.80;99.90;;;;;;5054664;28;20225;-62
2023/11/25 00:11:59;;;;;;;2.57;1.47;;;0.70;99.90;;;;;;5049380;28;20186;-60
2023/11/25 00:14:25;;;;;;;3.23;1.47;;;0.70;99.90;;;;;;5050094;28;20639;-61
2023/11/25 00:16:51;;;;;;;2.73;1.53;;;0.70;99.90;;;;;;5050992;28;20181;-61
2023/11/25 00:19:17;;;;;;;4.57;1.87;;;0.70;99.90;;;;;;5051324;28;20650;-61
2023/11/25 00:21:42;;;;;;;2.23;1.90;;;0.70;99.90;;;;;;5050930;28;20278;-61
2023/11/25 00:24:08;;;;;;;4.00;2.50;;;0.70;99.90;;;;;;5056424;28;21014;-62
2023/11/25 00:26:34;;;;;;;2.10;1.80;;;0.60;99.90;;;;;;5057322;28;20186;-61
2023/11/25 00:28:59;;;;;;;4.00;2.30;;;0.70;99.90;;;;;;5066280;28;20209;-60
2023/11/25 00:31:25;;;;;;;5.40;2.23;;;0.70;99.90;;;;;;5051794;28;20262;-61
2023/11/25 00:33:50;;;;;;;2.87;1.60;;;0.70;99.90;;;;;;5051378;28;20199;-61
2023/11/25 00:36:16;;;;;;;3.27;1.63;;;0.70;99.90;;;;;;5055758;28;20197;-60
2023/11/25 00:38:42;;;;;;;1.50;1.40;;;0.70;99.90;;;;;;5059921;28;20295;-61
2023/11/25 00:41:08;;;;;;;2.90;1.63;;;0.60;99.90;;;;;;5053237;28;20175;-61
2023/11/25 00:43:34;;;;;;;3.43;1.73;;;0.70;99.90;;;;;;5050692;28;20209;-61
2023/11/25 00:45:59;;;;;;;2.70;1.90;;;0.70;99.90;;;;;;5052589;28;20425;-62
2023/11/25 00:48:25;;;;;;;2.97;1.30;;;0.70;99.90;;;;;;5050442;28;20202;-62
2023/11/25 00:50:51;;;;;;;9.63;1.90;;;0.70;99.90;;;;;;5050403;28;20240;-61
2023/11/25 00:53:17;;;;;;;3.90;1.40;;;0.60;99.90;;;;;;5050507;28;20433;-61
2023/11/25 00:55:43;;;;;;;2.70;1.67;;;0.60;99.90;;;;;;5041148;28;20230;-62
2023/11/25 00:58:08;;;;;;;5.13;1.50;;;0.60;99.90;;;;;;5051105;28;20414;-61
2023/11/25 01:00:34;;;;;;;4.53;1.90;;;0.70;99.90;;;;;;5050611;28;20239;-60
2023/11/25 01:03:00;;;;;;;1.90;1.80;;;0.60;99.90;;;;;;5050119;28;20238;-61
2023/11/25 01:05:26;;;;;;;2.03;1.73;;;0.60;99.90;;;;;;5050652;28;20175;-61
2023/11/25 01:07:52;;;;;;;2.37;1.50;;;0.60;99.90;;;;;;5043230;28;20433;-61
2023/11/25 01:10:17;;;;;;;2.30;1.47;;;0.60;99.90;;;;;;5050530;28;20206;-61
2023/11/25 01:12:43;;;;;;;4.57;1.70;;;0.60;99.90;;;;;;5044305;28;20225;-61
2023/11/25 01:15:12;;;;;;;3.60;1.67;;;0.60;99.90;;;;;;5048693;28;20210;-61
2023/11/25 01:17:38;;;;;;;4.33;1.70;;;0.60;99.90;;;;;;5043253;28;20256;-60
2023/11/25 01:20:05;;;;;;;3.23;1.67;;;0.60;99.90;;;;;;5058765;28;20943;-61
2023/11/25 01:22:31;;;;;;;2.77;2.57;;;0.60;99.90;;;;;;5050413;28;20429;-61
2023/11/25 01:24:56;;;;;;;3.20;1.73;;;0.60;99.90;;;;;;5050324;28;20871;-61
2023/11/25 01:27:23;;;;;;;5.87;1.33;;;0.70;99.90;;;;;;5062204;28;20282;-62
2023/11/25 01:29:49;;;;;;;2.13;1.33;;;0.70;99.90;;;;;;5053983;28;20194;-63
2023/11/25 01:32:15;;;;;;;2.40;1.43;;;0.70;99.90;;;;;;5045668;28;20401;-61
2023/11/25 01:34:40;;;;;;;1.50;1.20;;;0.80;99.90;;;;;;5056650;28;20859;-61
2023/11/25 01:37:07;;;;;;;4.00;1.53;;;0.80;99.90;;;;;;5053564;28;20186;-61
2023/11/25 01:39:34;;;;;;;7.50;1.90;;;0.90;99.90;;;;;;5053459;28;20186;-60
2023/11/25 01:41:59;;;;;;;1.40;1.10;;;0.90;99.90;;;;;;5070480;28;20431;-61
2023/11/25 01:44:25;;;;;;;2.57;1.37;;;0.90;99.90;;;;;;5051539;28;20540;-57
2023/11/25 01:46:51;;;;;;;2.43;1.17;;;0.90;99.90;;;;;;5053293;28;20210;-59
2023/11/25 01:49:22;;;;;;;1.67;1.20;;;1.00;99.90;;;;;;5053698;28;20268;-60
2023/11/25 01:51:49;;;;;;;2.40;1.30;;;1.00;99.90;;;;;;5051437;28;20445;-61
2023/11/25 01:54:16;;;;;;;3.43;2.27;;;1.00;99.90;;;;;;5053602;28;20861;-59
2023/11/25 01:56:50;;;;;;;3.00;1.50;;;1.10;99.90;;;;;;5046354;28;20437;-61
2023/11/25 01:59:18;;;;;;;2.50;1.40;;;1.00;99.90;;;;;;5053422;28;20440;-58
2023/11/25 02:01:44;;;;;;;9.10;1.80;;;1.10;99.90;;;;;;5057455;28;20466;-60
2023/11/25 02:04:10;;;;;;;2.60;1.17;;;1.20;99.90;;;;;;5052632;28;20815;-59
2023/11/25 02:06:35;;;;;;;4.03;1.20;;;1.20;99.90;;;;;;5052509;28;20457;-62
2023/11/25 02:09:03;;;;;;;2.67;1.93;;;1.20;99.90;;;;;;5053012;28;20569;-60
2023/11/25 02:11:28;;;;;;;2.67;1.37;;;1.20;99.90;;;;;;5053503;28;20171;-63
2023/11/25 02:13:54;;;;;;;3.60;1.27;;;1.20;99.90;;;;;;5043261;28;20454;-54
2023/11/25 02:16:21;;;;;;;4.80;2.00;;;1.20;99.90;;;;;;5043780;28;20179;-59
2023/11/25 02:18:46;;;;;;;2.70;2.10;;;1.20;99.90;;;;;;5053167;28;20179;-60
2023/11/25 02:21:13;;;;;;;3.20;2.43;;;1.20;99.90;;;;;;5055936;28;20435;-63
2023/11/25 02:23:39;;;;;;;9.30;4.57;;;1.20;99.90;;;;;;5065023;28;20218;-58
2023/11/25 02:26:05;;;;;;;24.80;9.90;;;1.20;99.90;;;;;;5052805;28;20421;-60
2023/11/25 02:28:30;;;;;;;6.73;3.63;;;1.30;99.90;;;;;;5052859;28;20233;-60
2023/11/25 02:30:56;;;;;;;6.30;3.00;;;1.20;99.90;;;;;;5052543;28;20429;-58
2023/11/25 02:33:22;;;;;;;9.30;4.70;;;1.20;99.90;;;;;;5055825;28;20202;-61
2023/11/25 02:35:48;;;;;;;13.70;4.27;;;1.20;99.90;;;;;;5052492;28;20940;-62
2023/11/25 02:38:16;;;;;;;2.77;1.93;;;1.20;99.90;;;;;;5051385;28;20630;-62
2023/11/25 02:40:44;;;;;;;4.43;2.40;;;1.20;99.90;;;;;;5052507;28;20421;-62
2023/11/25 02:43:13;;;;;;;4.27;2.83;;;1.20;99.90;;;;;;5059378;28;20456;-62
2023/11/25 02:45:39;;;;;;;2.27;1.53;;;1.20;99.90;;;;;;5052641;28;20413;-63
2023/11/25 02:48:05;;;;;;;6.33;1.90;;;1.10;99.90;;;;;;5052387;28;20424;-62
2023/11/25 02:50:32;;;;;;;19.07;8.90;;;1.10;99.90;;;;;;5050085;28;20476;-61
2023/11/25 02:52:58;;;;;;;7.20;4.63;;;1.10;99.90;;;;;;5052164;28;20469;-61
2023/11/25 02:55:24;;;;;;;4.50;2.00;;;1.10;99.90;;;;;;5050818;28;20464;-64
2023/11/25 02:57:52;;;;;;;3.10;1.50;;;1.00;99.90;;;;;;5057873;28;20429;-61
2023/11/25 03:00:28;;;;;;;6.07;1.90;;;1.00;99.90;;;;;;5052365;28;20175;-61
2023/11/25 03:03:17;;;;;;;2.50;1.50;;;1.00;99.90;;;;;;5051888;28;20962;-63
2023/11/25 03:05:46;;;;;;;6.20;1.73;;;1.00;99.90;;;;;;5052028;28;20467;-61
2023/11/25 03:08:12;;;;;;;1.53;1.10;;;1.00;99.90;;;;;;5051851;28;20428;-62
2023/11/25 03:10:41;;;;;;;0.90;0.90;;;1.00;99.90;;;;;;5052116;28;20413;-61
2023/11/25 03:13:10;;;;;;;1.73;1.00;;;0.90;99.90;;;;;;5055281;28;20468;-62
2023/11/25 03:15:37;;;;;;;3.37;1.70;;;0.90;99.90;;;;;;5058179;28;20421;-61
2023/11/25 03:18:03;;;;;;;5.60;2.20;;;0.90;99.90;;;;;;5062787;28;20772;-62
2023/11/25 03:20:29;;;;;;;3.30;1.70;;;0.90;99.90;;;;;;5056892;28;20424;-62
2023/11/25 03:22:55;;;;;;;6.73;2.13;;;1.00;99.90;;;;;;5063303;28;20436;-62
2023/11/25 03:25:23;;;;;;;3.67;1.63;;;1.00;99.90;;;;;;5057836;28;20175;-62
2023/11/25 03:27:48;;;;;;;3.03;1.40;;;1.00;99.90;;;;;;5062857;28;20421;-62
2023/11/25 03:30:14;;;;;;;3.97;1.70;;;1.10;99.90;;;;;;5053024;28;20492;-61
2023/11/25 03:32:39;;;;;;;1.57;0.90;;;1.10;99.90;;;;;;5061173;28;20217;-62
2023/11/25 03:35:06;;;;;;;1.53;1.23;;;1.10;99.90;;;;;;5051343;28;20204;-62
2023/11/25 03:37:32;;;;;;;4.00;2.10;;;1.10;99.90;;;;;;5051573;28;20646;-62
2023/11/25 03:39:58;;;;;;;8.27;1.73;;;1.10;99.90;;;;;;5059482;28;20490;-61
2023/11/25 03:42:23;;;;;;;2.93;1.30;;;1.10;99.90;;;;;;5067082;28;20806;-61
2023/11/25 03:44:49;;;;;;;2.63;1.23;;;1.10;99.90;;;;;;5063144;28;20182;-61
2023/11/25 03:47:15;;;;;;;1.53;1.03;;;1.20;99.90;;;;;;5068607;28;20170;-62
2023/11/25 03:49:40;;;;;;;1.50;1.30;;;1.20;99.90;;;;;;5051355;28;20564;-61
2023/11/25 03:52:06;;;;;;;3.90;1.40;;;1.20;99.90;;;;;;5050974;28;20179;-60
2023/11/25 03:54:35;;;;;;;5.30;1.60;;;1.20;99.90;;;;;;5052087;28;20185;-62
2023/11/25 03:57:01;;;;;;;2.23;1.30;;;1.20;99.90;;;;;;5043560;28;20198;-63
2023/11/25 03:59:26;;;;;;;6.53;1.50;;;1.30;99.90;;;;;;5050718;28;20425;-61
2023/11/25 04:01:52;;;;;;;2.77;1.13;;;1.20;99.90;;;;;;5051178;28;20578;-60
2023/11/25 04:04:18;;;;;;;2.60;1.67;;;1.30;99.90;;;;;;5050694;28;20207;-61
2023/11/25 04:06:44;;;;;;;3.30;1.20;;;1.30;99.90;;;;;;5056843;28;20995;-61
2023/11/25 04:09:10;;;;;;;2.40;1.50;;;1.30;99.90;;;;;;5050649;28;20453;-62
2023/11/25 04:11:35;;;;;;;2.63;1.80;;;1.20;99.90;;;;;;5051905;28;20423;-62
2023/11/25 04:14:01;;;;;;;5.27;1.73;;;1.30;99.90;;;;;;5051672;28;20206;-63
2023/11/25 04:16:27;;;;;;;2.60;1.53;;;1.30;99.90;;;;;;5049090;28;20175;-63
2023/11/25 04:18:52;;;;;;;6.83;3.60;;;1.40;99.90;;;;;;5051190;28;20183;-62
2023/11/25 04:21:22;;;;;;;1.77;1.67;;;1.30;99.90;;;;;;5050541;28;20245;-64
2023/11/25 04:23:52;;;;;;;9.20;2.40;;;1.40;99.90;;;;;;5050597;28;20665;-62
2023/11/25 04:26:19;;;;;;;3.30;1.53;;;1.40;99.90;;;;;;5050036;28;20696;-62
2023/11/25 04:28:46;;;;;;;5.60;2.13;;;1.40;99.90;;;;;;5050749;28;20796;-62
2023/11/25 04:31:11;;;;;;;1.97;1.83;;;1.40;99.90;;;;;;5044657;28;20468;-64
2023/11/25 04:33:37;;;;;;;6.93;2.00;;;1.40;99.90;;;;;;5050459;28;20558;-63
2023/11/25 04:36:03;;;;;;;5.27;2.53;;;1.40;99.90;;;;;;5050519;28;20204;-62
2023/11/25 04:38:29;;;;;;;4.10;2.57;;;1.40;99.90;;;;;;5051112;28;20685;-60
2023/11/25 04:40:55;;;;;;;7.40;3.93;;;1.50;99.90;;;;;;5050562;28;20528;-61
2023/11/25 04:43:21;;;;;;;6.30;2.57;;;1.40;99.90;;;;;;5052185;28;20524;-59
2023/11/25 04:45:46;;;;;;;6.23;2.00;;;1.40;99.90;;;;;;5050512;28;20201;-63
2023/11/25 04:48:12;;;;;;;5.63;2.10;;;1.50;99.90;;;;;;5047522;28;20286;-61
2023/11/25 04:50:39;;;;;;;2.13;1.50;;;1.40;99.90;;;;;;5053107;28;20202;-62
2023/11/25 04:53:05;;;;;;;7.67;2.70;;;1.50;99.90;;;;;;5058513;28;20660;-61
2023/11/25 04:55:31;;;;;;;6.83;2.73;;;1.50;99.90;;;;;;5050407;28;20451;-61
2023/11/25 04:57:57;;;;;;;4.90;2.00;;;1.50;99.90;;;;;;5043380;28;20476;-63
2023/11/25 05:00:22;;;;;;;2.77;1.73;;;1.50;99.90;;;;;;5049522;28;20924;-62
2023/11/25 05:02:48;;;;;;;3.23;2.23;;;1.40;99.90;;;;;;5060823;28;20279;-62
2023/11/25 05:05:14;;;;;;;2.67;1.60;;;1.40;99.90;;;;;;5056423;28;20186;-62
2023/11/25 05:07:40;;;;;;;7.83;2.80;;;1.30;99.90;;;;;;5057900;28;20185;-61
2023/11/25 05:10:09;;;;;;;10.40;2.73;;;1.30;99.90;;;;;;5053993;28;20610;-62
2023/11/25 05:12:36;;;;;;;5.83;2.27;;;1.30;99.90;;;;;;5054849;28;20441;-62
2023/11/25 05:15:01;;;;;;;3.60;2.33;;;1.30;99.90;;;;;;5047512;28;20480;-61
2023/11/25 05:17:28;;;;;;;8.13;2.30;;;1.30;99.90;;;;;;5046085;28;20418;-61
2023/11/25 05:19:54;;;;;;;4.80;2.17;;;1.40;99.90;;;;;;5054398;28;20519;-61
2023/11/25 05:22:27;;;;;;;3.97;2.03;;;1.30;99.90;;;;;;5053814;28;20428;-61
2023/11/25 05:24:53;;;;;;;3.77;1.83;;;1.30;99.90;;;;;;5053772;28;20248;-61
2023/11/25 05:27:18;;;;;;;4.53;3.00;;;1.30;99.90;;;;;;5055876;28;20639;-61
2023/11/25 05:29:44;;;;;;;3.37;2.13;;;1.30;99.90;;;;;;5067991;28;20210;-61
2023/11/25 05:32:09;;;;;;;2.83;1.53;;;1.30;99.90;;;;;;5044728;28;20216;-61
2023/11/25 05:34:36;;;;;;;9.40;1.67;;;1.30;99.90;;;;;;5061802;28;20643;-61
2023/11/25 05:37:01;;;;;;;5.80;1.93;;;1.30;99.90;;;;;;5053580;28;20533;-63
2023/11/25 05:39:28;;;;;;;7.40;2.33;;;1.20;99.90;;;;;;5053404;28;20420;-63
2023/11/25 05:41:54;;;;;;;13.27;2.50;;;1.20;99.90;;;;;;5053514;28;20320;-61
2023/11/25 05:44:20;;;;;;;4.50;1.30;;;1.10;99.90;;;;;;5060540;28;20444;-61
2023/11/25 05:46:46;;;;;;;9.47;1.97;;;1.10;99.90;;;;;;5053929;28;20428;-61
2023/11/25 05:49:12;;;;;;;2.90;1.63;;;1.10;99.90;;;;;;5050632;28;20476;-61
2023/11/25 05:51:39;;;;;;;8.73;1.43;;;1.10;99.90;;;;;;5061583;28;20245;-63
2023/11/25 05:54:05;;;;;;;5.40;1.70;;;1.00;99.90;;;;;;5053322;28;20284;-61
2023/11/25 05:56:31;;;;;;;2.83;1.87;;;1.00;99.90;;;;;;5053252;28;20825;-61
2023/11/25 05:58:57;;;;;;;8.83;2.67;;;1.00;99.90;;;;;;5047850;28;20441;-63
2023/11/25 06:01:23;;;;;;;5.83;2.07;;;1.00;99.90;;;;;;5051893;28;20190;-61
2023/11/25 06:03:52;;;;;;;1.77;1.30;;;0.90;99.90;;;;;;5052733;28;20198;-63
2023/11/25 06:06:21;;;;;;;3.70;1.77;;;0.90;99.90;;;;;;5052902;28;20258;-61
2023/11/25 06:08:47;;;;;;;3.83;2.30;;;0.90;99.90;;;;;;5053051;28;20457;-62
2023/11/25 06:11:20;;;;;;;2.77;1.90;;;0.90;99.90;;;;;;5061143;28;20425;-62
2023/11/25 06:13:45;;;;;;;5.63;1.93;;;0.80;99.90;;;;;;5051544;28;20445;-62
2023/11/25 06:16:11;;;;;;;5.23;2.10;;;0.80;99.90;;;;;;5061797;28;20474;-61
2023/11/25 06:18:36;;;;;;;5.13;2.10;;;0.80;99.90;;;;;;5062794;28;20207;-63
2023/11/25 06:21:04;;;;;;;2.00;1.07;;;0.80;99.90;;;;;;5067642;28;20272;-62
2023/11/25 06:23:31;;;;;;;7.53;2.80;;;0.80;99.90;;;;;;5052874;28;20336;-62
2023/11/25 06:25:56;;;;;;;4.90;1.60;;;0.70;99.90;;;;;;5052764;28;20421;-63
2023/11/25 06:28:24;;;;;;;4.50;1.60;;;0.70;99.90;;;;;;5054656;28;20425;-62
2023/11/25 06:30:55;;;;;;;8.70;2.63;;;0.80;99.90;;;;;;5058474;28;20221;-61
2023/11/25 06:33:24;;;;;;;2.60;1.20;;;0.80;99.90;;;;;;5052194;28;20951;-62
2023/11/25 06:35:50;;;;;;;5.77;2.10;;;0.70;99.90;;;;;;5050403;28;20433;-62
2023/11/25 06:38:16;;;;;;;3.00;1.70;;;0.70;99.90;;;;;;5052238;28;20418;-64
2023/11/25 06:40:42;;;;;;;2.93;1.50;;;0.80;99.90;;;;;;5060049;28;20551;-63
2023/11/25 06:43:08;;;;;;;8.70;1.97;;;0.80;99.90;;;;;;5052301;28;20540;-64
2023/11/25 06:45:34;;;;;;;11.20;2.67;;;0.70;99.90;;;;;;5056069;28;20178;-62
2023/11/25 06:48:00;;;;;;;3.70;2.20;;;0.70;99.90;;;;;;5056764;28;20171;-61
2023/11/25 06:50:26;;;;;;;5.57;3.27;;;0.70;99.90;;;;;;5044388;28;20885;-62
2023/11/25 06:52:51;;;;;;;5.13;2.07;;;0.60;99.90;;;;;;5052296;28;20442;-62
2023/11/25 06:55:20;;;;;;;6.60;2.43;;;0.70;99.90;;;;;;5052124;28;20234;-62
2023/11/25 06:57:47;;;;;;;5.80;1.87;;;0.60;99.90;;;;;;5052530;28;20182;-61
2023/11/25 07:00:13;;;;;;;7.40;2.10;;;0.70;99.90;;;;;;5042203;28;20437;-62
2023/11/25 07:02:40;;;;;;;2.03;1.83;;;0.70;99.90;;;;;;5051616;28;20548;-62
2023/11/25 07:05:07;;;;;;;4.50;2.33;;;0.70;99.90;;;;;;5051969;28;20421;-62
2023/11/25 07:07:33;;;;;;;2.40;1.87;;;0.70;99.90;;;;;;5055356;28;20412;-61
2023/11/25 07:09:59;;;;;;;6.33;2.20;;;0.80;99.90;;;;;;5056520;28;20461;-61
2023/11/25 07:12:24;;;;;;;3.33;1.83;;;0.80;99.90;;;;;;5051771;28;20509;-62
2023/11/25 07:14:50;;;;;;;3.13;2.10;;;0.90;99.90;;;;;;5057733;28;20175;-62
2023/11/25 07:17:16;;;;;;;3.00;1.90;;;0.90;99.90;;;;;;5055071;28;20190;-62
2023/11/25 07:19:42;;;;;;;4.90;1.67;;;0.90;99.90;;;;;;5052065;28;20230;-63
2023/11/25 07:22:08;;;;;;;4.23;1.97;;;1.00;99.90;;;;;;5052004;28;20607;-64
2023/11/25 07:24:39;;;;;;;4.90;1.77;;;1.00;99.90;;;;;;5049755;28;20448;-62
2023/11/25 07:27:10;;;;;;;3.53;2.13;;;1.00;99.90;;;;;;5053474;28;20457;-62
2023/11/25 07:29:36;;;;;;;6.70;2.30;;;1.10;99.90;;;;;;5050245;28;20584;-63
2023/11/25 07:32:02;;;;;;;4.47;1.73;;;1.10;99.90;;;;;;5059939;28;20505;-63
2023/11/25 07:34:31;;;;;;;3.50;1.53;;;1.10;99.90;;;;;;5050905;28;20475;-60
2023/11/25 07:36:57;;;;;;;2.40;2.10;;;1.10;99.90;;;;;;5067032;28;20412;-61
2023/11/25 07:39:23;;;;;;;2.10;1.50;;;1.10;99.90;;;;;;5053349;28;20444;-65
2023/11/25 07:41:55;;;;;;;6.53;2.10;;;1.10;99.90;;;;;;5057183;28;20895;-64
2023/11/25 07:44:32;;;;;;;2.63;1.77;;;1.10;99.90;;;;;;5053702;28;20245;-61
2023/11/25 07:46:59;;;;;;;7.27;2.00;;;1.10;99.90;;;;;;5050488;28;20455;-62
2023/11/25 07:49:25;;;;;;;2.90;1.70;;;1.10;99.90;;;;;;5056109;28;20461;-61
2023/11/25 07:51:51;;;;;;;4.40;2.50;;;1.10;99.90;;;;;;5052736;28;20429;-61
2023/11/25 07:54:18;;;;;;;1.87;1.33;;;1.10;99.90;;;;;;5047189;28;20445;-62
2023/11/25 07:56:45;;;;;;;3.33;1.77;;;1.10;99.90;;;;;;5050809;28;20179;-63
2023/11/25 07:59:10;;;;;;;6.53;2.23;;;1.10;99.90;;;;;;5046251;28;20429;-63
2023/11/25 08:01:36;;;;;;;2.47;1.70;;;1.20;99.90;;;;;;5045799;28;20461;-63
2023/11/25 08:04:03;;;;;;;8.53;2.93;;;1.30;99.90;;;;;;5056749;28;20237;-67
2023/11/25 08:06:29;;;;;;;3.97;2.20;;;1.20;99.90;;;;;;5045605;28;20437;-69
2023/11/25 08:08:55;;;;;;;3.63;1.60;;;1.20;99.90;;;;;;5052049;28;20483;-69
2023/11/25 08:11:24;;;;;;;6.40;2.27;;;1.30;99.90;;;;;;5052446;28;20630;-70
2023/11/25 08:13:50;;;;;;;3.50;2.10;;;1.20;99.90;;;;;;5053114;28;20469;-70
2023/11/25 08:16:18;;;;;;;3.23;1.60;;;1.20;99.90;;;;;;5042457;28;20515;-63
2023/11/25 08:18:47;;;;;;;8.43;2.00;;;1.10;99.90;;;;;;5055872;28;20572;-63
2023/11/25 08:21:13;;;;;;;3.83;1.93;;;1.20;99.90;;;;;;5054239;28;20409;-63
2023/11/25 08:23:39;;;;;;;3.37;2.23;;;1.40;99.90;;;;;;5054375;28;20469;-61
2023/11/25 08:26:05;;;;;;;4.50;2.00;;;1.50;99.90;;;;;;5050770;28;20421;-62
2023/11/25 08:28:31;;;;;;;4.37;1.77;;;1.80;99.90;;;;;;5059007;28;20938;-63
2023/11/25 08:30:57;;;;;;;4.43;2.17;;;2.00;99.90;;;;;;5063775;28;20641;-65
2023/11/25 08:33:25;;;;;;;5.93;2.93;;;2.30;99.90;;;;;;5057618;28;20503;-65
2023/11/25 08:35:50;;;;;;;4.33;1.33;;;2.50;99.90;;;;;;5055504;28;20816;-64
2023/11/25 08:38:16;;;;;;;2.50;1.90;;;2.70;99.90;;;;;;5050702;28;20413;-66
2023/11/25 08:40:42;;;;;;;4.47;2.20;;;3.00;99.90;;;;;;5050458;28;20179;-67
2023/11/25 08:43:12;;;;;;;2.23;1.40;;;3.40;99.90;;;;;;5059078;28;20194;-66
2023/11/25 08:45:38;;;;;;;3.67;1.87;;;3.20;99.90;;;;;;5050818;28;20565;-72
2023/11/25 08:48:05;;;;;;;3.40;2.30;;;3.00;99.90;;;;;;5050798;28;20441;-69
2023/11/25 08:50:33;;;;;;;3.20;2.50;;;3.10;99.90;;;;;;5045908;28;20896;-74
2023/11/25 08:53:01;;;;;;;2.20;1.90;;;3.10;99.90;;;;;;5050903;28;20567;-63
2023/11/25 08:55:27;;;;;;;2.73;1.30;;;3.10;99.90;;;;;;5050530;28;20507;-64
2023/11/25 08:57:53;;;;;;;3.83;1.83;;;3.40;99.90;;;;;;5050854;28;20465;-62
2023/11/25 09:00:19;;;;;;;3.93;2.03;;;3.60;99.90;;;;;;5050166;28;20172;-62
2023/11/25 09:02:47;;;;;;;6.53;1.77;;;3.60;99.90;;;;;;5047063;28;20699;-60
2023/11/25 09:05:21;;;;;;;4.03;2.27;;;3.10;99.90;;;;;;5054213;28;20819;-62
2023/11/25 09:07:57;;;;;;;4.10;2.07;;;3.30;99.90;;;;;;5051342;28;20436;-62
2023/11/25 09:10:23;;;;;;;2.60;1.63;;;3.70;99.90;;;;;;5050593;28;20610;-63
2023/11/25 09:12:52;;;;;;;4.37;2.07;;;3.80;99.90;;;;;;5050623;28;20429;-63
2023/11/25 09:15:18;;;;;;;7.00;2.60;;;3.70;99.90;;;;;;5034960;28;21246;-64
2023/11/25 09:17:44;;;;;;;5.00;2.10;;;3.50;99.90;;;;;;5047332;28;20417;-63
2023/11/25 09:20:12;;;;;;;3.93;2.00;;;3.10;99.90;;;;;;5050438;28;20420;-63
2023/11/25 09:22:39;;;;;;;5.50;2.00;;;3.40;99.90;;;;;;5050754;28;20465;-63
2023/11/25 09:25:05;;;;;;;4.60;2.03;;;3.60;99.90;;;;;;5050578;28;20420;-63
2023/11/25 09:27:31;;;;;;;8.03;1.97;;;3.50;99.90;;;;;;5052577;28;20515;-63
2023/11/25 09:29:57;;;;;;;3.50;1.70;;;3.40;99.90;;;;;;5045432;28;20892;-63
2023/11/25 09:32:27;;;;;;;3.10;1.40;;;3.60;99.90;;;;;;5050494;28;20191;-62
2023/11/25 09:34:53;;;;;;;6.47;1.80;;;3.50;99.90;;;;;;5064259;28;20786;-63
2023/11/25 09:37:19;;;;;;;4.47;1.93;;;3.30;99.90;;;;;;5060294;28;20433;-64
2023/11/25 09:39:45;;;;;;;3.57;1.60;;;3.30;99.90;;;;;;5050629;28;20832;-63
2023/11/25 09:42:11;;;;;;;3.33;1.60;;;3.40;99.90;;;;;;5050428;28;20406;-63
2023/11/25 09:44:38;;;;;;;3.70;1.30;;;3.40;99.90;;;;;;5045832;28;20183;-64
2023/11/25 09:47:04;;;;;;;4.03;1.50;;;3.30;99.90;;;;;;5046288;28;20426;-64
2023/11/25 09:49:29;;;;;;;1.80;1.43;;;3.00;99.90;;;;;;5053784;28;20985;-62
2023/11/25 09:52:04;;;;;;;5.10;1.90;;;3.00;99.90;;;;;;5062075;28;20273;-62
2023/11/25 09:54:30;;;;;;;2.47;1.40;;;3.10;99.90;;;;;;5053026;28;20182;-62
2023/11/25 09:56:58;;;;;;;3.30;1.87;;;3.50;99.90;;;;;;5060452;28;20446;-62
2023/11/25 09:59:26;;;;;;;2.70;1.80;;;3.50;99.90;;;;;;5053674;28;20467;-62
2023/11/25 10:01:52;;;;;;;2.07;1.73;;;3.40;99.90;;;;;;5051301;28;20461;-69
2023/11/25 10:04:18;;;;;;;2.87;1.80;;;3.50;99.90;;;;;;5054937;28;20540;-70
2023/11/25 10:06:48;;;;;;;8.63;2.47;;;3.40;99.90;;;;;;5054290;28;20174;-66
2023/11/25 10:09:15;;;;;;;12.10;2.13;;;3.50;99.90;;;;;;5053636;28;20457;-62
2023/11/25 10:11:44;;;;;;;5.23;1.80;;;3.40;99.90;;;;;;5060339;28;20433;-62
2023/11/25 10:14:13;;;;;;;3.93;2.10;;;3.50;99.90;;;;;;5047278;28;20515;-63
2023/11/25 10:16:43;;;;;;;3.87;2.33;;;3.70;99.90;;;;;;5055152;28;20428;-63
2023/11/25 10:19:18;;;;;;;6.27;2.63;;;3.80;99.90;;;;;;5058397;28;20422;-63
2023/11/25 10:21:45;;;;;;;3.77;2.00;;;3.70;99.90;;;;;;5053390;28;20413;-63
2023/11/25 10:24:11;;;;;;;9.20;2.20;;;3.70;99.90;;;;;;5046735;28;20460;-63
2023/11/25 10:26:37;;;;;;;9.30;2.30;;;3.80;99.90;;;;;;5052852;28;20487;-61
2023/11/25 10:29:03;;;;;;;6.63;2.23;;;3.80;99.90;;;;;;5056848;28;20206;-59
2023/11/25 10:31:31;;;;;;;3.37;2.23;;;3.80;99.90;;;;;;5055655;28;20414;-62
2023/11/25 10:33:57;;;;;;;5.77;2.10;;;4.00;99.90;;;;;;5053366;28;20441;-61
2023/11/25 10:36:23;;;;;;;3.00;2.37;;;3.80;99.90;;;;;;5053116;28;20519;-63
2023/11/25 10:38:48;;;;;;;5.07;2.03;;;4.00;99.90;;;;;;5057050;28;20170;-62
2023/11/25 10:41:14;;;;;;;6.33;1.83;;;3.60;99.90;;;;;;5055062;28;20631;-62
2023/11/25 10:43:44;;;;;;;5.17;2.10;;;3.50;99.90;;;;;;5052819;28;20230;-62
2023/11/25 10:46:10;;;;;;;8.10;2.90;;;3.70;99.90;;;;;;5052901;28;20182;-65
2023/11/25 10:48:41;;;;;;;5.53;2.43;;;3.60;99.90;;;;;;5052683;28;20421;-62
2023/11/25 10:51:08;;;;;;;8.73;2.97;;;3.60;99.90;;;;;;5052803;28;20466;-62
2023/11/25 10:53:37;;;;;;;11.07;2.40;;;3.50;99.90;;;;;;5052368;28;20440;-62
2023/11/25 10:56:07;;;;;;;12.73;2.43;;;3.40;99.90;;;;;;5052470;28;20413;-62
2023/11/25 10:58:34;;;;;;;6.57;2.83;;;3.50;99.90;;;;;;5051862;28;20421;-62
2023/11/25 11:01:02;;;;;;;7.43;2.43;;;3.80;99.90;;;;;;5052839;28;20471;-62
2023/11/25 11:03:53;;;;;;;4.50;2.60;;;3.90;99.90;;;;;;5045726;28;20472;-63
2023/11/25 11:06:23;;;;;;;5.60;2.40;;;3.70;99.90;;;;;;5051762;28;20436;-63
2023/11/25 11:08:52;;;;;;;7.80;2.40;;;3.60;99.90;;;;;;5052888;28;20453;-62
2023/11/25 11:11:31;;;;;;;6.50;3.00;;;3.60;99.90;;;;;;5051599;28;20437;-63
2023/11/25 11:14:08;;;;;;;8.10;4.00;;;3.90;99.90;;;;;;5046337;28;20460;-62
2023/11/25 11:16:45;;;;;;;6.30;3.23;;;3.60;99.90;;;;;;5050423;28;20425;-62
2023/11/25 11:19:10;;;;;;;4.40;2.50;;;3.60;99.90;;;;;;5048815;28;20930;-63
2023/11/25 11:21:43;;;;;;;3.87;2.27;;;3.50;99.90;;;;;;5052228;28;20420;-62
2023/11/25 11:24:12;;;;;;;3.70;2.90;;;3.30;99.90;;;;;;5054082;28;20681;-63
2023/11/25 11:27:00;;;;;;;5.10;2.77;;;3.50;99.90;;;;;;5050372;28;20526;-63
2023/11/25 11:29:43;;;;;;;4.33;2.37;;;3.50;99.90;;;;;;5048925;28;20552;-66
2023/11/25 11:32:09;;;;;;;7.13;3.20;;;3.60;99.90;;;;;;5050173;28;20555;-63
2023/11/25 11:34:36;;;;;;;3.70;2.30;;;3.70;99.90;;;;;;5052216;28;20724;-62
2023/11/25 11:37:03;;;;;;;3.33;2.77;;;3.80;99.90;;;;;;5051874;28;20412;-62
2023/11/25 11:39:47;;;;;;;9.33;2.47;;;3.80;99.90;;;;;;5044902;28;20772;-63
2023/11/25 11:42:22;;;;;;;2.23;2.03;;;3.80;99.90;;;;;;5051863;28;20416;-63
2023/11/25 11:45:27;;;;;;;5.30;3.20;;;3.50;99.90;;;;;;5053136;28;20741;-63
2023/11/25 11:47:58;;;;;;;2.93;2.33;;;3.60;99.90;;;;;;5051362;28;20417;-62
2023/11/25 11:50:29;;;;;;;2.63;2.43;;;3.80;99.90;;;;;;5051687;28;20979;-63
2023/11/25 11:53:03;;;;;;;2.90;2.30;;;3.60;99.90;;;;;;5045184;28;20448;-62
2023/11/25 11:55:40;;;;;;;3.00;2.43;;;3.50;99.90;;;;;;5050994;28;20413;-62
2023/11/25 11:58:15;;;;;;;2.83;2.63;;;3.60;99.90;;;;;;5051938;28;20417;-63
2023/11/25 12:01:03;;;;;;;3.73;1.83;;;3.60;99.90;;;;;;5051542;28;20439;-63
2023/11/25 12:03:36;;;;;;;3.60;2.40;;;3.70;99.90;;;;;;5048077;28;20460;-63
2023/11/25 12:06:03;;;;;;;1.90;1.80;;;3.30;99.90;;;;;;5045698;28;20532;-64
2023/11/25 12:08:29;;;;;;;2.17;1.97;;;3.40;99.90;;;;;;5051462;28;20914;-64
2023/11/25 12:10:56;;;;;;;3.20;1.90;;;3.40;99.90;;;;;;5047805;28;20928;-64
2023/11/25 12:13:28;;;;;;;2.07;1.87;;;3.40;99.90;;;;;;5047686;28;20433;-65
2023/11/25 12:15:58;;;;;;;3.67;2.47;;;3.40;99.90;;;;;;5045266;28;20487;-64
2023/11/25 12:18:33;;;;;;;4.80;2.67;;;3.50;99.90;;;;;;5049906;28;21005;-63
2023/11/25 12:21:08;;;;;;;2.63;2.43;;;3.30;99.90;;;;;;5050200;28;20413;-64
2023/11/25 12:23:34;;;;;;;2.90;2.07;;;3.30;99.90;;;;;;5050831;28;20436;-63
2023/11/25 12:26:00;;;;;;;3.23;2.63;;;3.10;99.90;;;;;;5051032;28;20478;-64
2023/11/25 12:28:26;;;;;;;2.40;2.20;;;3.30;99.90;;;;;;5051122;28;20496;-63
2023/11/25 12:30:52;;;;;;;3.57;2.53;;;3.50;99.90;;;;;;5051165;28;20599;-63
2023/11/25 12:33:18;;;;;;;3.43;2.73;;;3.30;99.90;;;;;;5048642;28;20191;-63
2023/11/25 12:35:44;;;;;;;4.03;3.37;;;3.20;99.90;;;;;;5050872;28;20179;-64
2023/11/25 12:38:10;;;;;;;2.90;2.70;;;3.40;99.90;;;;;;5051217;28;20436;-63
2023/11/25 12:40:37;;;;;;;2.17;2.07;;;3.20;99.90;;;;;;5052909;28;20189;-66
2023/11/25 12:43:08;;;;;;;3.27;2.53;;;3.10;99.90;;;;;;5033240;28;20450;-67
2023/11/25 12:45:45;;;;;;;2.60;2.40;;;3.10;99.90;;;;;;5059202;28;20483;-65
2023/11/25 12:48:12;;;;;;;4.70;2.80;;;3.10;99.90;;;;;;5055105;28;20428;-68
2023/11/25 12:50:57;;;;;;;4.30;3.80;;;3.00;99.90;;;;;;5060816;28;20457;-71
2023/11/25 12:53:24;;;;;;;3.63;2.77;;;3.20;99.90;;;;;;5054184;28;20428;-66
2023/11/25 12:55:50;;;;;;;2.93;2.73;;;2.90;99.90;;;;;;5049105;28;20431;-67
2023/11/25 12:58:17;;;;;;;3.07;2.77;;;3.00;99.90;;;;;;5057147;28;20433;-65
2023/11/25 13:00:57;;;;;;;5.30;3.77;;;3.00;99.90;;;;;;5051454;28;20202;-64